NHD weather

Al Minhad Air Base
Dubai, Dubai Emirate, United Arab Emirates

Public forecast

Using degrees Celsius for public forecast. Weather courtesy of forecast.io.

METAR (pilot weather report)

Retrieved 2019/06/25 10:30 UTC (26 minutes ago):

OMDM 251030Z 31009KT 270V340 CAVOK 42/22 Q0999 A2951

TAF (pilot weather forecast)

Forecast is more than 12 hours old.

Retrieved 2015/04/11 18:25 UTC (4 years ago):

TAF OMDM 111725Z 1118/1224 06005KT 7000 NSC BECMG 1203/1205 19013KT PROB30 TEMPO 1206/1212 21008G18KT 4000 DU BECMG 1213/1215 35010KT BECMG 1218/1220 12009KT